Time;durP1;ratioP1;P1;durP2;ratioP2;P2;SDS_P1;SDS_P2;PMS_P1;PMS_P2;Temp;Humidity;BMP_temperature;BMP_pressure;BME280_temperature;BME280_humidity;BME280_pressure;Samples;Min_cycle;Max_cycle;Signal;HPM_P1;HPM_P2
2023/12/17 00:00:03;;;;;;;19.55;11.05;;;;;;;-142.91;100.00;56616.03;5053975;28;20278;-73
2023/12/17 00:02:30;;;;;;;19.80;10.55;;;;;;;-142.91;100.00;56616.03;5054993;28;20214;-74
2023/12/17 00:04:56;;;;;;;22.42;11.15;;;;;;;;;;5055023;28;20270;-75
2023/12/17 00:07:23;;;;;;;58.53;27.38;;;;;;;;;;5053957;28;20670;-73
2023/12/17 00:09:48;;;;;;;37.47;18.40;;;;;;;-142.91;100.00;56616.03;5060145;28;20293;-74
2023/12/17 00:12:15;;;;;;;20.10;12.52;;;;;;;;;;5073543;28;20281;-74
2023/12/17 00:14:42;;;;;;;19.85;11.55;;;;;;;-142.91;100.00;56616.03;5054381;28;20278;-74
2023/12/17 00:17:10;;;;;;;18.20;10.98;;;;;;;-142.91;100.00;56616.03;5054685;28;20286;-73
2023/12/17 00:19:37;;;;;;;16.80;9.88;;;;;;;-142.91;100.00;56616.03;5041929;28;20234;-75
2023/12/17 00:22:04;;;;;;;15.18;8.30;;;;;;;-142.91;100.00;56616.03;5053851;28;20282;-73
2023/12/17 00:24:30;;;;;;;13.23;8.82;;;;;;;-142.91;100.00;56616.03;5054367;28;20257;-73
2023/12/17 00:26:57;;;;;;;13.48;8.23;;;;;;;-142.91;100.00;56616.03;5067998;28;20287;-74
2023/12/17 00:29:24;;;;;;;13.85;8.32;;;;;;;-142.91;100.00;56616.03;5073162;28;20205;-73
2023/12/17 00:31:50;;;;;;;13.10;8.57;;;;;;;-142.91;100.00;56616.03;5070743;28;20305;-73
2023/12/17 00:34:18;;;;;;;13.02;8.38;;;;;;;-142.91;100.00;56616.03;5054739;28;20234;-74
2023/12/17 00:36:45;;;;;;;11.60;8.65;;;;;;;;;;5054881;28;20222;-75
2023/12/17 00:39:13;;;;;;;12.88;7.90;;;;;;;-142.91;100.00;56616.03;5073539;28;20285;-74
2023/12/17 00:41:40;;;;;;;10.10;7.45;;;;;;;;;;5070116;28;20270;-73
2023/12/17 00:44:06;;;;;;;14.55;8.43;;;;;;;-142.91;100.00;56616.03;5053837;28;20211;-73
2023/12/17 00:46:33;;;;;;;19.38;9.13;;;;;;;;;;5054035;28;20286;-73
2023/12/17 00:48:59;;;;;;;12.05;8.00;;;;;;;-142.91;100.00;56616.03;5053391;28;20223;-73
2023/12/17 00:51:27;;;;;;;9.40;8.23;;;;;;;;;;5051300;28;20195;-73
2023/12/17 00:53:57;;;;;;;14.82;8.27;;;;;;;-142.91;100.00;56616.03;5052371;28;20249;-73
2023/12/17 00:56:23;;;;;;;11.88;8.18;;;;;;;-142.91;100.00;56616.03;5057517;28;20202;-74
2023/12/17 00:58:50;;;;;;;11.80;8.05;;;;;;;;;;5053986;28;20218;-73
2023/12/17 01:01:16;;;;;;;12.90;7.95;;;;;;;;;;5061313;28;20278;-74
2023/12/17 01:03:43;;;;;;;9.45;8.02;;;;;;;-142.91;100.00;56616.03;5071469;28;20277;-74
2023/12/17 01:06:10;;;;;;;14.98;8.63;;;;;;;-142.91;100.00;56616.03;5073835;28;20194;-74
2023/12/17 01:08:38;;;;;;;10.20;7.57;;;;;;;-142.91;100.00;56616.03;5072462;28;20241;-73
2023/12/17 01:11:05;;;;;;;13.93;7.47;;;;;;;-142.91;100.00;56616.03;5057508;28;20242;-74
2023/12/17 01:13:32;;;;;;;8.75;7.13;;;;;;;-142.91;100.00;56616.03;5055363;28;20223;-74
2023/12/17 01:15:58;;;;;;;8.05;6.25;;;;;;;-142.91;100.00;56616.03;5054343;28;20237;-74
2023/12/17 01:18:25;;;;;;;10.90;7.78;;;;;;;-142.91;100.00;56616.03;5052308;28;20252;-74
2023/12/17 01:20:51;;;;;;;9.65;7.38;;;;;;;;;;5052849;28;20207;-73
2023/12/17 01:23:18;;;;;;;9.05;6.75;;;;;;;-142.91;100.00;56616.03;5052147;28;20286;-73
2023/12/17 01:25:46;;;;;;;8.73;7.00;;;;;;;-142.91;100.00;56616.03;5053125;28;20302;-73
2023/12/17 01:28:12;;;;;;;12.63;8.02;;;;;;;-142.91;100.00;56616.03;5053891;28;20290;-73
2023/12/17 01:30:39;;;;;;;10.77;7.45;;;;;;;-142.91;100.00;56616.03;5048627;28;20252;-72
2023/12/17 01:33:05;;;;;;;9.57;7.40;;;;;;;-142.91;100.00;56616.03;5057214;28;20752;-73
2023/12/17 01:35:32;;;;;;;9.85;7.53;;;;;;;-142.91;100.00;56616.03;5050594;28;20651;-74
2023/12/17 01:37:59;;;;;;;16.35;8.90;;;;;;;-142.91;100.00;56616.03;5045781;28;20732;-74
2023/12/17 01:40:25;;;;;;;9.73;8.13;;;;;;;-142.91;100.00;56616.03;5048969;28;20200;-72
2023/12/17 01:42:53;;;;;;;12.27;7.95;;;;;;;;;;5051505;28;20223;-75
2023/12/17 01:45:20;;;;;;;10.70;7.80;;;;;;;-142.91;100.00;56616.03;5053983;28;20266;-76
2023/12/17 01:47:47;;;;;;;9.98;7.35;;;;;;;-142.91;100.00;56616.03;5053485;28;20237;-76
2023/12/17 01:50:13;;;;;;;11.45;7.30;;;;;;;;;;5052279;28;20230;-73
2023/12/17 01:52:40;;;;;;;10.68;7.93;;;;;;;;;;5054312;28;20243;-73
2023/12/17 01:55:08;;;;;;;13.27;8.00;;;;;;;-142.91;100.00;56616.03;5051127;28;20270;-74
2023/12/17 01:57:35;;;;;;;11.77;7.30;;;;;;;-142.91;100.00;56616.03;5050459;28;20716;-74
2023/12/17 02:00:03;;;;;;;10.77;7.07;;;;;;;;;;5050834;28;20300;-73
2023/12/17 02:02:31;;;;;;;10.85;7.60;;;;;;;-142.91;100.00;56616.03;5062603;28;20217;-73
2023/12/17 02:04:58;;;;;;;8.52;7.57;;;;;;;-142.91;100.00;56616.03;5064899;28;20273;-73
2023/12/17 02:07:24;;;;;;;12.30;7.55;;;;;;;;;;5051708;28;20191;-74
2023/12/17 02:09:51;;;;;;;9.67;7.27;;;;;;;;;;5051706;28;20227;-72
2023/12/17 02:12:27;;;;;;;10.75;7.15;;;;;;;;;;5051831;28;20640;-73
2023/12/17 02:14:53;;;;;;;10.55;7.30;;;;;;;-142.91;100.00;56616.03;5052563;28;20226;-74
2023/12/17 02:17:24;;;;;;;10.63;7.13;;;;;;;;;;5065124;28;20716;-73
2023/12/17 02:19:51;;;;;;;8.77;7.82;;;;;;;-142.91;100.00;56616.03;5039792;28;20298;-73
2023/12/17 02:22:17;;;;;;;9.30;7.10;;;;;;;-142.91;100.00;56616.03;5065249;28;20230;-73
2023/12/17 02:24:45;;;;;;;10.15;6.57;;;;;;;-142.91;100.00;56616.03;5065589;28;20294;-74
2023/12/17 02:27:12;;;;;;;8.13;5.97;;;;;;;-142.91;100.00;56616.03;5056176;28;20230;-72
2023/12/17 02:29:39;;;;;;;9.35;7.05;;;;;;;-142.91;100.00;56616.03;5055160;28;20744;-73
2023/12/17 02:32:06;;;;;;;8.23;6.15;;;;;;;-142.91;100.00;56616.03;5055385;28;20266;-73
2023/12/17 02:34:32;;;;;;;7.38;5.72;;;;;;;-142.91;100.00;56616.03;5054942;28;20638;-74
2023/12/17 02:36:59;;;;;;;7.93;6.68;;;;;;;-142.91;100.00;56616.03;5055699;28;20242;-72
2023/12/17 02:39:26;;;;;;;9.38;6.10;;;;;;;-142.91;100.00;56616.03;5054270;28;20234;-74
2023/12/17 02:41:54;;;;;;;6.70;5.72;;;;;;;-142.91;100.00;56616.03;5053260;28;20231;-74
2023/12/17 02:44:20;;;;;;;6.80;5.60;;;;;;;-142.91;100.00;56616.03;5055488;28;20364;-74
2023/12/17 02:46:47;;;;;;;5.97;5.38;;;;;;;-142.91;100.00;56616.03;5055285;28;20226;-74
2023/12/17 02:49:15;;;;;;;6.05;5.15;;;;;;;-142.91;100.00;56616.03;5055151;28;20226;-74
2023/12/17 02:51:41;;;;;;;5.38;4.88;;;;;;;-142.91;100.00;56616.03;5054805;28;20230;-74
2023/12/17 02:54:08;;;;;;;5.60;5.15;;;;;;;-142.91;100.00;56616.03;5052220;28;20242;-73
2023/12/17 02:56:38;;;;;;;8.85;4.93;;;;;;;-142.91;100.00;56616.03;5050249;28;20680;-73
2023/12/17 02:59:08;;;;;;;5.53;4.88;;;;;;;-142.91;100.00;56616.03;5050221;28;20285;-74
2023/12/17 03:01:34;;;;;;;5.57;4.93;;;;;;;-142.91;100.00;56616.03;5049774;28;20287;-74
2023/12/17 03:04:02;;;;;;;6.63;4.43;;;;;;;-142.91;100.00;56616.03;5050488;28;20230;-74
2023/12/17 03:06:29;;;;;;;5.70;4.50;;;;;;;-142.91;100.00;56616.03;5066115;28;20249;-73
2023/12/17 03:08:56;;;;;;;5.68;5.07;;;;;;;-142.91;100.00;56616.03;5069384;28;20286;-73
2023/12/17 03:11:22;;;;;;;7.10;4.90;;;;;;;-142.91;100.00;56616.03;5050970;28;20283;-74
2023/12/17 03:13:49;;;;;;;5.22;4.72;;;;;;;-142.91;100.00;56616.03;5050902;28;20720;-73
2023/12/17 03:16:17;;;;;;;5.65;4.60;;;;;;;;;;5051690;28;20365;-73
2023/12/17 03:18:43;;;;;;;5.03;4.63;;;;;;;-142.91;100.00;56616.03;5050617;28;20281;-74
2023/12/17 03:21:10;;;;;;;5.18;4.68;;;;;;;-142.91;100.00;56616.03;5049706;28;20737;-74
2023/12/17 03:23:37;;;;;;;5.28;4.82;;;;;;;-142.91;100.00;56616.03;5052158;28;20199;-75
2023/12/17 03:26:04;;;;;;;5.72;4.90;;;;;;;;;;5050746;28;20261;-74
2023/12/17 03:28:31;;;;;;;5.05;3.88;;;;;;;-142.91;100.00;56616.03;5049772;28;20669;-73
2023/12/17 03:30:57;;;;;;;4.82;4.43;;;;;;;;;;5050107;28;20242;-74
2023/12/17 03:33:25;;;;;;;4.97;4.57;;;;;;;-142.91;100.00;56616.03;5049883;28;20234;-73
2023/12/17 03:35:52;;;;;;;6.68;4.90;;;;;;;-142.91;100.00;56616.03;5050626;28;20285;-74
2023/12/17 03:38:19;;;;;;;8.50;4.57;;;;;;;-142.91;100.00;56616.03;5050586;28;20242;-73
2023/12/17 03:40:45;;;;;;;5.53;4.60;;;;;;;-142.91;100.00;56616.03;5045831;28;20669;-74
2023/12/17 03:43:12;;;;;;;5.07;4.22;;;;;;;-142.91;100.00;56616.03;5044846;28;20285;-74
2023/12/17 03:45:39;;;;;;;5.55;5.05;;;;;;;-142.91;100.00;56616.03;5052596;28;20294;-74
2023/12/17 03:48:06;;;;;;;5.05;4.65;;;;;;;;;;5052150;28;20221;-74
2023/12/17 03:50:34;;;;;;;4.68;4.18;;;;;;;-142.91;100.00;56616.03;5054837;28;20223;-73
2023/12/17 03:53:00;;;;;;;6.78;4.93;;;;;;;-142.91;100.00;56616.03;5053086;28;20737;-73
2023/12/17 03:55:27;;;;;;;6.97;6.38;;;;;;;-142.91;100.00;56616.03;5052405;28;20281;-74
2023/12/17 03:57:54;;;;;;;6.03;5.20;;;;;;;-142.91;100.00;56616.03;5051739;28;20286;-73
2023/12/17 04:00:20;;;;;;;5.38;4.88;;;;;;;-142.91;100.00;56616.03;5053203;28;20278;-73
2023/12/17 04:02:47;;;;;;;4.65;4.18;;;;;;;;;;5052815;28;20238;-73
2023/12/17 04:05:13;;;;;;;5.75;4.68;;;;;;;-142.91;100.00;56616.03;5060466;28;20762;-73
2023/12/17 04:07:41;;;;;;;4.70;4.30;;;;;;;-142.91;100.00;56616.03;5072127;28;20213;-73
2023/12/17 04:10:09;;;;;;;5.03;4.55;;;;;;;-142.91;100.00;56616.03;5065161;28;20205;-73
2023/12/17 04:12:35;;;;;;;5.45;5.00;;;;;;;;;;5067312;28;20646;-74
2023/12/17 04:15:02;;;;;;;5.40;4.93;;;;;;;-142.91;100.00;56616.03;5074122;28;20252;-73
2023/12/17 04:17:29;;;;;;;4.88;4.10;;;;;;;-142.91;100.00;56616.03;5059014;28;20218;-73
2023/12/17 04:19:56;;;;;;;5.50;5.00;;;;;;;-142.91;100.00;56616.03;5072431;28;20230;-73
2023/12/17 04:22:23;;;;;;;5.32;4.85;;;;;;;-142.91;100.00;56616.03;5070230;28;20224;-73
2023/12/17 04:24:50;;;;;;;5.80;4.57;;;;;;;-142.91;100.00;56616.03;5054887;28;20199;-73
2023/12/17 04:27:17;;;;;;;6.20;5.00;;;;;;;-142.91;100.00;56616.03;5068654;28;20195;-74
2023/12/17 04:29:44;;;;;;;5.80;4.63;;;;;;;-142.91;100.00;56616.03;5073794;28;20281;-74
2023/12/17 04:32:11;;;;;;;5.30;4.55;;;;;;;-142.91;100.00;56616.03;5071571;28;20288;-74
2023/12/17 04:34:38;;;;;;;5.60;5.03;;;;;;;-142.91;100.00;56616.03;5071622;28;20405;-72
2023/12/17 04:37:04;;;;;;;7.20;5.82;;;;;;;-142.91;100.00;56616.03;5067417;28;20218;-73
2023/12/17 04:39:31;;;;;;;5.45;5.00;;;;;;;-142.91;100.00;56616.03;5052300;28;20606;-73
2023/12/17 04:41:59;;;;;;;6.03;5.45;;;;;;;23.25;100.00;56616.03;5065958;28;20257;-74
2023/12/17 04:44:26;;;;;;;5.53;4.95;;;;;;;-142.91;100.00;56616.03;5071225;28;20230;-73
2023/12/17 04:46:53;;;;;;;5.22;4.65;;;;;;;-142.91;100.00;56616.03;5068163;28;20791;-74
2023/12/17 04:49:19;;;;;;;5.30;4.65;;;;;;;-142.91;100.00;56616.03;5070613;28;20229;-74
2023/12/17 04:51:46;;;;;;;7.13;5.23;;;;;;;-142.91;100.00;56616.03;5064927;28;20199;-73
2023/12/17 04:54:14;;;;;;;5.37;4.53;;;;;;;-142.91;100.00;56616.03;5061946;28;20285;-73
2023/12/17 04:56:41;;;;;;;6.20;4.47;;;;;;;;;;5068519;28;20205;-73
2023/12/17 04:59:09;;;;;;;6.57;4.97;;;;;;;-142.91;100.00;56616.03;5069955;28;20226;-73
2023/12/17 05:01:35;;;;;;;5.13;4.70;;;;;;;-142.91;100.00;56616.03;5051193;28;20206;-73
2023/12/17 05:04:02;;;;;;;6.32;4.15;;;;;;;-142.91;100.00;56616.03;5052679;28;20266;-74
2023/12/17 05:06:29;;;;;;;7.80;6.13;;;;;;;-142.91;100.00;56616.03;5052415;28;20539;-75
2023/12/17 05:08:55;;;;;;;6.13;5.35;;;;;;;;;;5053248;28;20226;-75
2023/12/17 05:11:21;;;;;;;6.28;5.68;;;;;;;;;;5054023;28;20658;-75
2023/12/17 05:13:48;;;;;;;6.43;5.40;;;;;;;-142.91;100.00;56616.03;5056733;28;20245;-75
2023/12/17 05:16:16;;;;;;;6.40;5.40;;;;;;;-142.91;100.00;56616.03;5058035;28;20261;-75
2023/12/17 05:18:43;;;;;;;6.47;5.40;;;;;;;-142.91;100.00;56616.03;5057700;28;20265;-74
2023/12/17 05:21:09;;;;;;;8.02;6.30;;;;;;;-142.91;100.00;56616.03;5053054;28;20230;-74
2023/12/17 05:23:36;;;;;;;6.67;5.43;;;;;;;-142.91;100.00;56616.03;5053554;28;20234;-74
2023/12/17 05:26:02;;;;;;;8.63;5.57;;;;;;;-142.91;100.00;56616.03;5065293;28;20306;-73
2023/12/17 05:28:29;;;;;;;8.10;5.72;;;;;;;-142.91;100.00;56616.03;5052120;28;20766;-74
2023/12/17 05:30:56;;;;;;;6.70;5.80;;;;;;;-142.91;100.00;56616.03;5053416;28;20241;-73
2023/12/17 05:33:24;;;;;;;6.53;5.47;;;;;;;-142.91;100.00;56616.03;5051661;28;20269;-74
2023/12/17 05:35:51;;;;;;;6.30;5.57;;;;;;;-142.91;100.00;56616.03;5053993;28;20767;-73
2023/12/17 05:38:18;;;;;;;15.30;9.57;;;;;;;-142.91;100.00;56616.03;5055081;28;20278;-74
2023/12/17 05:40:45;;;;;;;11.90;8.23;;;;;;;-142.91;100.00;56616.03;5046848;28;20298;-73
2023/12/17 05:43:11;;;;;;;15.33;9.37;;;;;;;-142.91;100.00;56616.03;5036339;28;20298;-75
2023/12/17 05:45:38;;;;;;;11.40;8.35;;;;;;;-142.91;100.00;56616.03;5045281;28;20322;-74
2023/12/17 05:48:08;;;;;;;32.88;17.30;;;;;;;-142.91;100.00;56616.03;5034495;28;20230;-72
2023/12/17 05:50:36;;;;;;;26.60;13.43;;;;;;;-142.91;100.00;56616.03;5037391;28;20222;-74
2023/12/17 05:53:03;;;;;;;14.93;8.43;;;;;;;-142.91;100.00;56616.03;5046146;28;20294;-73
2023/12/17 05:55:29;;;;;;;12.20;7.13;;;;;;;-142.91;100.00;56616.03;5044707;28;20716;-74
2023/12/17 05:57:56;;;;;;;11.20;6.43;;;;;;;-142.91;100.00;56616.03;5049154;28;20254;-73
2023/12/17 06:00:23;;;;;;;8.90;5.53;;;;;;;-142.91;100.00;56616.03;5050250;28;20230;-75
2023/12/17 06:02:50;;;;;;;7.65;6.45;;;;;;;-142.91;100.00;56616.03;5050255;28;20297;-74
2023/12/17 06:05:17;;;;;;;6.18;5.38;;;;;;;-142.91;100.00;56616.03;5044767;28;20226;-74
2023/12/17 06:07:45;;;;;;;7.13;5.45;;;;;;;-142.91;100.00;56616.03;5044308;28;20321;-74
2023/12/17 06:10:11;;;;;;;5.87;5.30;;;;;;;-142.91;100.00;56616.03;5058123;28;20313;-74
2023/12/17 06:12:38;;;;;;;7.35;5.70;;;;;;;-142.91;100.00;56616.03;5054173;28;20298;-74
2023/12/17 06:15:07;;;;;;;15.40;8.63;;;;;;;-142.91;100.00;56616.03;5043271;28;20207;-73
2023/12/17 06:17:33;;;;;;;43.75;21.13;;;;;;;-142.91;100.00;56616.03;5050837;28;20626;-73
2023/12/17 06:20:00;;;;;;;10.40;7.72;;;;;;;-142.91;100.00;56616.03;5046620;28;20199;-74
2023/12/17 06:22:28;;;;;;;10.60;7.18;;;;;;;-142.91;100.00;56616.03;5057489;28;20235;-74
2023/12/17 06:24:56;;;;;;;9.20;6.75;;;;;;;-142.91;100.00;56616.03;5070212;28;20202;-74
2023/12/17 06:27:22;;;;;;;6.38;5.45;;;;;;;-142.91;100.00;56616.03;5063724;28;20267;-73
2023/12/17 06:29:52;;;;;;;7.22;5.93;;;;;;;-142.91;100.00;56616.03;5065303;28;20232;-74
2023/12/17 06:32:18;;;;;;;5.55;4.95;;;;;;;-142.91;100.00;56616.03;5065756;28;20223;-73
2023/12/17 06:34:45;;;;;;;6.25;5.60;;;;;;;-142.91;100.00;56616.03;5071766;28;20229;-75
2023/12/17 06:37:12;;;;;;;5.65;5.10;;;;;;;-142.91;100.00;56616.03;5067039;28;20680;-74
2023/12/17 06:39:41;;;;;;;7.75;5.40;;;;;;;;;;5043821;28;20674;-74
2023/12/17 06:42:09;;;;;;;6.00;5.38;;;;;;;-142.91;100.00;56616.03;5035520;28;20334;-74
2023/12/17 06:44:36;;;;;;;7.78;5.07;;;;;;;23.25;100.00;56616.03;5050192;28;20290;-75
2023/12/17 06:47:03;;;;;;;8.90;6.28;;;;;;;23.25;100.00;56616.03;5053552;28;20202;-74
2023/12/17 06:49:30;;;;;;;9.20;5.70;;;;;;;-142.91;100.00;56616.03;5055916;28;20281;-73
2023/12/17 06:51:56;;;;;;;7.20;5.10;;;;;;;-142.91;100.00;56616.03;5065135;28;20719;-73
2023/12/17 06:54:23;;;;;;;6.13;5.53;;;;;;;-142.91;100.00;56616.03;5058971;28;20227;-73
2023/12/17 06:56:49;;;;;;;9.60;5.30;;;;;;;;;;5055051;28;20226;-73
2023/12/17 06:59:17;;;;;;;6.40;5.15;;;;;;;-142.91;100.00;56616.03;5059736;28;20313;-73
2023/12/17 07:01:44;;;;;;;6.05;4.95;;;;;;;;;;5048175;28;20223;-73
2023/12/17 07:04:10;;;;;;;7.22;5.65;;;;;;;23.25;100.00;56616.03;5049241;28;20366;-73
2023/12/17 07:06:37;;;;;;;8.55;6.05;;;;;;;-142.91;100.00;56616.03;5042331;28;20231;-74
2023/12/17 07:09:04;;;;;;;7.53;5.50;;;;;;;-142.91;100.00;56616.03;5041647;28;20208;-76
2023/12/17 07:11:30;;;;;;;6.97;5.18;;;;;;;23.25;100.00;56616.03;5048307;28;20195;-74
2023/12/17 07:13:57;;;;;;;7.22;5.13;;;;;;;-142.91;100.00;56616.03;5050419;28;20237;-74
2023/12/17 07:16:28;;;;;;;5.65;5.07;;;;;;;;;;5056526;28;20746;-74
2023/12/17 07:18:54;;;;;;;33.75;17.67;;;;;;;;;;5046585;28;20204;-74
2023/12/17 07:21:20;;;;;;;51.72;23.92;;;;;;;;;;5061132;28;20624;-75
2023/12/17 07:23:47;;;;;;;12.05;8.57;;;;;;;-142.91;100.00;56616.03;5060398;28;20301;-74
2023/12/17 07:26:14;;;;;;;7.65;6.28;;;;;;;;;;5053283;28;20323;-76
2023/12/17 07:28:40;;;;;;;8.50;6.80;;;;;;;;;;5052239;28;20290;-75
2023/12/17 07:31:07;;;;;;;8.45;6.05;;;;;;;;;;5048691;28;20768;-75
2023/12/17 07:33:35;;;;;;;7.72;5.50;;;;;;;-142.91;100.00;56616.03;5038026;28;20291;-76
2023/12/17 07:36:01;;;;;;;7.13;5.25;;;;;;;;;;5054184;28;20295;-76
2023/12/17 07:38:27;;;;;;;6.95;6.22;;;;;;;;;;5049385;28;21309;-75
2023/12/17 07:40:54;;;;;;;6.07;5.43;;;;;;;;;;5062196;28;20282;-74
2023/12/17 07:43:21;;;;;;;6.75;6.13;;;;;;;23.25;100.00;56616.03;5046489;28;20226;-75
2023/12/17 07:45:47;;;;;;;6.82;6.07;;;;;;;;;;5051305;28;20286;-75
2023/12/17 07:48:14;;;;;;;6.88;5.55;;;;;;;23.25;100.00;56616.03;5061882;28;20293;-75
2023/12/17 07:50:42;;;;;;;6.90;6.22;;;;;;;;;;5056914;28;20237;-76
2023/12/17 07:53:09;;;;;;;8.85;6.32;;;;;;;23.27;100.00;56616.03;5066519;28;20675;-76
2023/12/17 07:55:35;;;;;;;12.63;5.57;;;;;;;;;;5067623;28;20201;-75
2023/12/17 07:58:01;;;;;;;6.68;6.03;;;;;;;;;;5066182;28;20285;-75
2023/12/17 08:00:28;;;;;;;6.10;5.55;;;;;;;;;;5063732;28;20297;-75
2023/12/17 08:02:54;;;;;;;6.60;6.00;;;;;;;;;;5052670;28;20764;-75
2023/12/17 08:05:21;;;;;;;12.07;7.50;;;;;;;;;;5053092;28;20327;-75
2023/12/17 08:07:49;;;;;;;11.65;9.15;;;;;;;23.26;100.00;56616.03;5053417;28;20274;-76
2023/12/17 08:10:15;;;;;;;17.10;9.48;;;;;;;;;;5053777;28;20286;-75
2023/12/17 08:12:42;;;;;;;13.77;9.98;;;;;;;;;;5066267;28;20310;-76
2023/12/17 08:15:08;;;;;;;8.35;7.55;;;;;;;;;;5053907;28;20295;-72
2023/12/17 08:17:35;;;;;;;12.88;8.00;;;;;;;23.90;100.00;56616.03;5053379;28;20775;-74
2023/12/17 08:20:02;;;;;;;9.10;8.00;;;;;;;23.26;100.00;56616.03;5053576;28;20740;-75
2023/12/17 08:22:29;;;;;;;12.88;9.18;;;;;;;;;;5053807;28;20198;-76
2023/12/17 08:24:57;;;;;;;11.75;8.52;;;;;;;23.26;100.00;56616.03;5053754;28;20199;-75
2023/12/17 08:27:23;;;;;;;21.15;13.73;;;;;;;;;;5052155;28;20305;-75
2023/12/17 08:29:50;;;;;;;15.52;10.60;;;;;;;23.26;100.00;56616.03;5053626;28;20286;-75
2023/12/17 08:32:17;;;;;;;43.13;22.10;;;;;;;;;;5051932;28;20805;-74
2023/12/17 08:34:43;;;;;;;11.82;8.90;;;;;;;;;;5052088;28;20673;-75
2023/12/17 08:37:10;;;;;;;17.83;10.07;;;;;;;23.26;100.00;56616.03;5052116;28;20277;-74
2023/12/17 08:39:36;;;;;;;10.07;7.53;;;;;;;23.27;100.00;56616.03;5052788;28;20203;-74
2023/12/17 08:42:05;;;;;;;13.93;9.45;;;;;;;23.26;100.00;56616.03;5054379;28;20281;-74
2023/12/17 08:44:32;;;;;;;17.98;11.48;;;;;;;-142.91;100.00;56616.03;5053644;28;20203;-74
2023/12/17 08:46:58;;;;;;;11.10;9.13;;;;;;;23.26;100.00;56616.03;5053348;28;20211;-74
2023/12/17 08:49:25;;;;;;;8.63;7.53;;;;;;;;;;5053238;28;20234;-74
2023/12/17 08:51:52;;;;;;;9.68;7.93;;;;;;;23.25;100.00;56616.03;5053257;28;20281;-77
2023/12/17 08:54:19;;;;;;;7.65;6.93;;;;;;;23.25;100.00;56616.03;5053524;28;20203;-74
2023/12/17 08:56:46;;;;;;;9.90;7.88;;;;;;;23.25;100.00;56616.03;5053244;28;20631;-74
2023/12/17 08:59:14;;;;;;;16.98;10.38;;;;;;;23.26;100.00;56616.03;5052601;28;20241;-73
2023/12/17 09:01:40;;;;;;;10.13;7.13;;;;;;;23.26;100.00;56616.03;5055049;28;20309;-74
2023/12/17 09:04:08;;;;;;;9.13;7.50;;;;;;;23.25;100.00;56616.03;5060481;28;20724;-75
2023/12/17 09:06:42;;;;;;;11.52;7.43;;;;;;;23.27;100.00;56616.03;5052333;28;20214;-73
2023/12/17 09:09:09;;;;;;;8.43;6.93;;;;;;;23.33;100.00;56616.03;5053257;28;20574;-73
2023/12/17 09:11:35;;;;;;;7.57;6.18;;;;;;;23.26;100.00;56616.03;5053043;28;20664;-73
2023/12/17 09:14:02;;;;;;;6.65;6.05;;;;;;;23.25;100.00;56616.03;5052259;28;20245;-75
2023/12/17 09:16:30;;;;;;;7.03;5.63;;;;;;;23.26;100.00;56616.03;5052161;28;20278;-75
2023/12/17 09:18:56;;;;;;;6.85;6.15;;;;;;;23.25;100.00;56616.03;5052045;28;20290;-75
2023/12/17 09:21:24;;;;;;;6.60;6.00;;;;;;;23.25;100.00;56616.03;5054266;28;20211;-75
2023/12/17 09:23:51;;;;;;;6.85;6.15;;;;;;;-142.91;100.00;56616.03;5053569;28;20719;-76
2023/12/17 09:26:18;;;;;;;7.10;6.40;;;;;;;23.26;100.00;56616.03;5051892;28;20724;-73
2023/12/17 09:28:48;;;;;;;6.63;6.03;;;;;;;23.27;100.00;56616.03;5054004;28;20211;-77
2023/12/17 09:31:15;;;;;;;7.50;6.72;;;;;;;23.27;100.00;56616.03;5053305;28;20210;-75
2023/12/17 09:33:43;;;;;;;9.50;6.93;;;;;;;;;;5053680;28;20282;-75
2023/12/17 09:36:10;;;;;;;8.48;6.75;;;;;;;23.25;100.00;56616.03;5051554;28;20233;-74
2023/12/17 09:38:37;;;;;;;6.32;5.60;;;;;;;23.26;100.00;56616.03;5053172;28;20282;-75
2023/12/17 09:41:05;;;;;;;7.32;6.63;;;;;;;;;;5050744;28;20401;-73
2023/12/17 09:43:32;;;;;;;7.40;6.75;;;;;;;23.27;100.00;56616.03;5046900;28;20203;-76
2023/12/17 09:45:59;;;;;;;10.32;6.97;;;;;;;;;;5049838;28;20265;-76
2023/12/17 09:48:25;;;;;;;8.30;6.50;;;;;;;;;;5049964;28;20214;-75
2023/12/17 09:50:53;;;;;;;8.80;7.78;;;;;;;23.29;100.00;56616.03;5049733;28;20222;-74
2023/12/17 09:53:22;;;;;;;11.43;7.60;;;;;;;23.25;100.00;56616.03;5049887;28;20730;-75
2023/12/17 09:55:48;;;;;;;12.25;9.25;;;;;;;-142.91;100.00;56616.03;5049664;28;20269;-75
2023/12/17 09:58:15;;;;;;;12.15;7.75;;;;;;;;;;5049984;28;20279;-75
2023/12/17 10:00:42;;;;;;;9.88;7.40;;;;;;;23.27;100.00;56616.03;5049564;28;20201;-75
2023/12/17 10:03:12;;;;;;;23.08;12.77;;;;;;;23.25;100.00;56616.03;5066176;28;20199;-75
2023/12/17 10:05:39;;;;;;;14.85;8.75;;;;;;;;;;5069802;28;20234;-75
2023/12/17 10:08:07;;;;;;;8.00;7.18;;;;;;;-142.91;100.00;56616.03;5068901;28;20298;-74
2023/12/17 10:10:34;;;;;;;9.35;7.95;;;;;;;23.29;100.00;56616.03;5069984;28;20741;-75
2023/12/17 10:13:02;;;;;;;8.02;7.18;;;;;;;23.25;100.00;56616.03;5069150;28;20224;-75
2023/12/17 10:15:35;;;;;;;9.40;6.20;;;;;;;23.26;100.00;56616.03;5069891;28;20198;-74
2023/12/17 10:18:02;;;;;;;7.43;6.30;;;;;;;23.25;100.00;56616.03;5069366;28;20208;-75
2023/12/17 10:20:29;;;;;;;7.20;6.50;;;;;;;23.27;100.00;56616.03;5070483;28;20247;-75
2023/12/17 10:22:56;;;;;;;7.38;6.40;;;;;;;;;;5069063;28;20619;-76
2023/12/17 10:25:24;;;;;;;8.73;7.35;;;;;;;23.26;100.00;56616.03;5070570;28;20281;-77
2023/12/17 10:27:53;;;;;;;10.45;7.40;;;;;;;;;;5069964;28;20645;-74
2023/12/17 10:30:20;;;;;;;7.90;6.32;;;;;;;23.26;100.00;56616.03;5069310;28;20226;-75
2023/12/17 10:32:47;;;;;;;7.55;6.38;;;;;;;;;;5050609;28;20226;-76
2023/12/17 10:35:17;;;;;;;7.15;6.40;;;;;;;-142.91;100.00;56616.03;5050108;28;20278;-74
2023/12/17 10:37:45;;;;;;;9.38;7.18;;;;;;;23.33;100.00;56616.03;5050869;28;20191;-74
2023/12/17 10:40:12;;;;;;;9.38;7.07;;;;;;;23.26;100.00;56616.03;5050561;28;20305;-74
2023/12/17 10:42:42;;;;;;;11.48;6.97;;;;;;;-142.91;100.00;56616.03;5058595;28;20194;-75
2023/12/17 10:45:11;;;;;;;11.23;6.97;;;;;;;;;;5053562;28;20253;-74
2023/12/17 10:47:37;;;;;;;12.13;7.18;;;;;;;;;;5050624;28;20215;-75
2023/12/17 10:50:04;;;;;;;7.60;6.45;;;;;;;23.25;100.00;56616.03;5049717;28;20270;-74
2023/12/17 10:52:33;;;;;;;9.50;6.75;;;;;;;23.25;100.00;56616.03;5054239;28;20198;-74
2023/12/17 10:55:00;;;;;;;7.45;6.40;;;;;;;23.26;100.00;56616.03;5055614;28;20643;-75
2023/12/17 10:57:29;;;;;;;7.85;6.40;;;;;;;23.25;100.00;56616.03;5055549;28;20199;-75
2023/12/17 11:00:00;;;;;;;10.27;7.05;;;;;;;23.33;100.00;56616.03;5054540;28;20612;-75
2023/12/17 11:02:27;;;;;;;8.35;6.95;;;;;;;23.26;100.00;56616.03;5054060;28;20217;-75
2023/12/17 11:04:56;;;;;;;8.82;7.38;;;;;;;23.26;100.00;56616.03;5053779;28;20310;-75
2023/12/17 11:07:23;;;;;;;7.78;6.70;;;;;;;-142.91;100.00;56616.03;5047864;28;20218;-75
2023/12/17 11:09:50;;;;;;;8.48;7.57;;;;;;;23.26;100.00;56616.03;5053906;28;20298;-76
2023/12/17 11:12:18;;;;;;;9.13;6.85;;;;;;;23.25;100.00;56616.03;5054205;28;20281;-76
2023/12/17 11:14:45;;;;;;;7.80;7.00;;;;;;;;;;5054053;28;20262;-76
2023/12/17 11:17:14;;;;;;;7.07;6.47;;;;;;;23.26;100.00;56616.03;5053914;28;20236;-75
2023/12/17 11:19:55;;;;;;;9.68;6.97;;;;;;;23.26;100.00;56616.03;5054098;28;20199;-75
2023/12/17 11:22:23;;;;;;;11.07;9.55;;;;;;;23.41;100.00;56616.03;5053485;28;20740;-77
2023/12/17 11:24:50;;;;;;;11.93;8.52;;;;;;;23.26;100.00;56616.03;5053942;28;20653;-78
2023/12/17 11:27:19;;;;;;;6.50;5.90;;;;;;;23.26;100.00;56616.03;5053101;28;20237;-74
2023/12/17 11:29:46;;;;;;;6.53;5.78;;;;;;;23.25;100.00;56616.03;5054299;28;20226;-75
2023/12/17 11:32:14;;;;;;;7.25;6.55;;;;;;;;;;5053397;28;20357;-73
2023/12/17 11:34:41;;;;;;;7.65;6.30;;;;;;;23.26;100.00;56616.03;5062753;28;20762;-76
2023/12/17 11:37:09;;;;;;;11.07;7.03;;;;;;;23.25;100.00;56616.03;5071938;28;20281;-74
2023/12/17 11:39:36;;;;;;;9.93;7.22;;;;;;;23.27;100.00;56616.03;5072703;28;20285;-75
2023/12/17 11:42:03;;;;;;;8.20;7.00;;;;;;;23.25;100.00;56616.03;5066126;28;20293;-76
2023/12/17 11:44:29;;;;;;;8.73;7.55;;;;;;;23.25;100.00;56616.03;5071043;28;20203;-77
2023/12/17 11:46:56;;;;;;;7.50;6.57;;;;;;;23.26;100.00;56616.03;5069638;28;20202;-76